CheckWX is a tool to help pilots better visualize weather data.  It is not intended as a substitute for an official pre-flight weather briefing.

19:34:23 UTC

E38 METAR
Alpine-Casparis Municipal Airport
Alpine, Texas, USA
Current

19 mins ago

KE38 201915Z AUTO 23019G28KT 10SM SCT055 25/09 A2992 RMK AO2 T02540086
Observed
Nov-20 @ 19:15 UTC
Wind
  • 230° at 19 KTS
  • Gusting to 28 KTS
Visibility
10 SM
Flight Rules
VFR
Cloud Levels
  • Scattered at 5,500' AGL
Temperature
25°C / 77°F
Dewpoint
C / 48°F
Humidity
36%
Altimeter
29.92" Hg
Pressure
1013.22 hPa
Previous

39 mins ago

KE38 201855Z AUTO 23020G29KT 10SM SCT055 24/09 A2993 RMK AO2 T02360085
Observed
Nov-20 @ 18:55 UTC
Wind
  • 230° at 20 KTS
  • Gusting to 29 KTS
Visibility
10 SM
Flight Rules
VFR
Cloud Levels
  • Scattered at 5,500' AGL
Temperature
24°C / 75°F
Dewpoint
C / 48°F
Humidity
39%
Altimeter
29.93" Hg
Pressure
1013.52 hPa
Previous

59 mins ago

KE38 201835Z AUTO 23023G32KT 10SM CLR 24/08 A2994 RMK AO2 T02400081
Observed
Nov-20 @ 18:35 UTC
Wind
  • 230° at 23 KTS
  • Gusting to 32 KTS
Visibility
10 SM
Flight Rules
VFR
Cloud Levels
  • Clear skies
Temperature
24°C / 75°F
Dewpoint
C / 46°F
Humidity
36%
Altimeter
29.94" Hg
Pressure
1013.92 hPa